Z E U S — IFWZ — position and weather

sailwx.info

Track history (hours):
 
Tides and Currents Weather Stations Pressure Air Temp Water Temp Dewpoint Dewpoint Depression Visibility Wind Speed Wind Dir Waves Ship Positions

Z E U S

Last reported at 2015-May-22 09:33 UTC. Time now 2015-May-22 10:03 UTC.
Position N 37°56' E 012°20'.

Length 53 m; draft 2.5 m.

Type: Ship (hazmat cat C). MMSI: 247072100.

Date/timePositionNaut miles runAvg speedWind from/ knotsBaromVisibWave heightAir tempDewpointWater temp
2015-May-22 09:33N 37°56' E 012°20'0 0.0
2015-May-22 08:33N 37°56' E 012°20'0 0.0
2015-May-22 07:33N 37°56' E 012°20'0 0.0
2015-May-22 06:33N 37°56' E 012°20'6 6.3
2015-May-22 05:33N 37°59' E 012°26'4 3.8
2015-May-22 04:33N 38°01' E 012°31'0 0.0
2015-May-21 12:33N 38°01' E 012°31'0 0.0
2015-May-21 11:33N 38°01' E 012°31'6 6.2
2015-May-21 10:32N 37°58' E 012°24'4 4.0
2015-May-21 09:33N 37°56' E 012°20'0 0.0
2015-May-21 08:33N 37°56' E 012°20'0 0.0
2015-May-21 07:33N 37°56' E 012°19'0 0.0
2015-May-21 06:33N 37°56' E 012°19'6 5.6
2015-May-21 05:33N 37°58' E 012°26'4 4.4
2015-May-21 04:33N 38°01' E 012°31'0 0.0
2015-May-20 14:18N 38°01' E 012°31'0 0.0
2015-May-20 13:33N 38°01' E 012°31'0 0.0
2015-May-20 12:33N 38°01' E 012°31'0 0.0
2015-May-20 11:33N 38°01' E 012°31'5 4.8
2015-May-20 10:33N 37°58' E 012°25'5 5.3
2015-May-20 09:33N 37°56' E 012°20'0 0.0
2015-May-20 08:33N 37°56' E 012°20'0 0.0
2015-May-20 07:33N 37°56' E 012°19'0 0.0
2015-May-20 06:33N 37°56' E 012°19'5 4.9
2015-May-20 05:33N 37°58' E 012°25'5 5.1
2015-May-20 04:33N 38°01' E 012°31'0 0.0
2015-May-19 15:31N 38°01' E 012°31'0 0.0
2015-May-19 14:33N 38°01' E 012°31'0 0.0
2015-May-19 13:33N 38°01' E 012°31'0 0.0
2015-May-19 12:33N 38°01' E 012°31'0 0.5
2015-May-19 11:33N 38°01' E 012°30'10 9.7
2015-May-19 10:34N 37°56' E 012°20'5 5.2
2015-May-19 09:33N 37°58' E 012°13'7 7.0
2015-May-19 08:33N 37°58' E 012°05'1 1.1
2015-May-19 07:33N 37°58' E 012°06'1010.3
2015-May-19 06:33N 37°57' E 012°19'5 4.9
2015-May-19 05:33N 37°58' E 012°25'5 4.9
2015-May-19 04:33N 38°01' E 012°31'0 0.0
2015-May-18 12:20N 38°01' E 012°31'0 0.0
2015-May-18 11:33N 38°01' E 012°31'6 6.2
2015-May-18 10:33N 37°58' E 012°23'4 3.9
2015-May-18 09:33N 37°56' E 012°20'0 0.0
2015-May-18 08:33N 37°56' E 012°20'0 0.0
2015-May-18 07:33N 37°56' E 012°20'0 0.0
2015-May-18 06:33N 37°56' E 012°20'5 5.1
2015-May-18 05:33N 37°58' E 012°25'5 5.0
2015-May-18 04:33N 38°01' E 012°31'0 0.0
2015-May-16 11:33N 38°01' E 012°31'7 7.1
2015-May-16 10:33N 37°59' E 012°22'3 3.3
2015-May-16 09:33N 37°56' E 012°20'0 0.0
2015-May-16 08:33N 37°56' E 012°20'0 0.0
2015-May-16 07:33N 37°56' E 012°19'0 0.0
2015-May-16 06:33N 37°56' E 012°20'5 5.3
2015-May-16 05:33N 37°58' E 012°25'5 4.8
2015-May-16 04:33N 38°01' E 012°31'0 0.0
2015-May-15 14:33N 38°01' E 012°31'0 0.0
2015-May-15 13:33N 38°01' E 012°31'0 0.0
2015-May-15 12:33N 38°01' E 012°31'0 0.0
2015-May-15 11:33N 38°01' E 012°31'7 7.2
2015-May-15 10:33N 37°58' E 012°23'3 2.9
2015-May-15 09:33N 37°56' E 012°19'0 0.0
2015-May-15 08:33N 37°56' E 012°20'0 0.0
2015-May-15 07:33N 37°56' E 012°19'0 0.0
2015-May-15 06:33N 37°56' E 012°19'7 6.8
2015-May-15 05:33N 37°59' E 012°27'3 3.1
2015-May-15 04:33N 38°01' E 012°31'0 0.0
2015-May-14 14:34N 38°01' E 012°31'0 0.0
2015-May-14 13:33N 38°01' E 012°31'0 0.0
2015-May-14 12:33N 38°01' E 012°31'0 0.0
2015-May-14 11:34N 38°01' E 012°31'5 4.8
2015-May-14 10:33N 37°58' E 012°25'5 5.2
2015-May-14 09:33N 37°56' E 012°19'0 0.0
2015-May-14 08:33N 37°56' E 012°20'1 0.6
2015-May-14 07:33N 37°57' E 012°19'1 1.0
2015-May-14 06:33N 37°57' E 012°20'4 4.4
2015-May-14 05:33N 37°58' E 012°25'5 4.8
2015-May-14 04:33N 38°01' E 012°31'0 0.0
2015-May-13 14:31N 38°01' E 012°31'0 0.0
2015-May-13 13:33N 38°01' E 012°31'0 0.0
2015-May-13 12:33N 38°01' E 012°31'0 0.0
2015-May-13 11:33N 38°01' E 012°31'5 5.0
2015-May-13 10:33N 37°58' E 012°25'5 5.1
2015-May-13 09:33N 37°56' E 012°19'0 0.0
2015-May-13 08:33N 37°56' E 012°20'0 0.0
2015-May-13 07:33N 37°56' E 012°20'2 2.0
2015-May-13 06:33N 37°58' E 012°20'4 4.1
2015-May-13 05:33N 37°58' E 012°25'5 4.8
2015-May-13 04:33N 38°01' E 012°31'0 0.0
2015-May-12 14:33N 38°01' E 012°31'0 0.0
2015-May-12 13:33N 38°01' E 012°31'0 0.0
2015-May-12 12:33N 38°01' E 012°31'0 0.5
2015-May-12 11:33N 38°01' E 012°30'9 8.8
2015-May-12 10:33N 37°56' E 012°20'3 3.4
2015-May-12 09:33N 37°58' E 012°16'  
Track history (hours):
 
Tides and Currents Weather Stations Pressure Air Temp Water Temp Dewpoint Dewpoint Depression Visibility Wind Speed Wind Dir Waves Ship Positions

Z E U S

Last reported at 2015-May-22 09:33 UTC. Time now 2015-May-22 10:03 UTC.
Position N 37°56' E 012°20'.

Length 53 m; draft 2.5 m.

Type: Ship (hazmat cat C). MMSI: 247072100.

Date/timePositionNaut miles runAvg speedWind from/ knotsBaromVisibWave heightAir tempDewpointWater temp
2015-May-22 09:33N 37°56' E 012°20'0 0.0
2015-May-22 08:33N 37°56' E 012°20'0 0.0
2015-May-22 07:33N 37°56' E 012°20'0 0.0
2015-May-22 06:33N 37°56' E 012°20'6 6.3
2015-May-22 05:33N 37°59' E 012°26'4 3.8
2015-May-22 04:33N 38°01' E 012°31'0 0.0
2015-May-21 12:33N 38°01' E 012°31'0 0.0
2015-May-21 11:33N 38°01' E 012°31'6 6.2
2015-May-21 10:32N 37°58' E 012°24'4 4.0
2015-May-21 09:33N 37°56' E 012°20'0 0.0
2015-May-21 08:33N 37°56' E 012°20'0 0.0
2015-May-21 07:33N 37°56' E 012°19'0 0.0
2015-May-21 06:33N 37°56' E 012°19'6 5.6
2015-May-21 05:33N 37°58' E 012°26'4 4.4
2015-May-21 04:33N 38°01' E 012°31'0 0.0
2015-May-20 14:18N 38°01' E 012°31'0 0.0
2015-May-20 13:33N 38°01' E 012°31'0 0.0
2015-May-20 12:33N 38°01' E 012°31'0 0.0
2015-May-20 11:33N 38°01' E 012°31'5 4.8
2015-May-20 10:33N 37°58' E 012°25'5 5.3
2015-May-20 09:33N 37°56' E 012°20'0 0.0
2015-May-20 08:33N 37°56' E 012°20'0 0.0
2015-May-20 07:33N 37°56' E 012°19'0 0.0
2015-May-20 06:33N 37°56' E 012°19'5 4.9
2015-May-20 05:33N 37°58' E 012°25'5 5.1
2015-May-20 04:33N 38°01' E 012°31'0 0.0
2015-May-19 15:31N 38°01' E 012°31'0 0.0
2015-May-19 14:33N 38°01' E 012°31'0 0.0
2015-May-19 13:33N 38°01' E 012°31'0 0.0
2015-May-19 12:33N 38°01' E 012°31'0 0.5
2015-May-19 11:33N 38°01' E 012°30'10 9.7
2015-May-19 10:34N 37°56' E 012°20'5 5.2
2015-May-19 09:33N 37°58' E 012°13'7 7.0
2015-May-19 08:33N 37°58' E 012°05'1 1.1
2015-May-19 07:33N 37°58' E 012°06'1010.3
2015-May-19 06:33N 37°57' E 012°19'5 4.9
2015-May-19 05:33N 37°58' E 012°25'5 4.9
2015-May-19 04:33N 38°01' E 012°31'0 0.0
2015-May-18 12:20N 38°01' E 012°31'0 0.0
2015-May-18 11:33N 38°01' E 012°31'6 6.2
2015-May-18 10:33N 37°58' E 012°23'4 3.9
2015-May-18 09:33N 37°56' E 012°20'0 0.0
2015-May-18 08:33N 37°56' E 012°20'0 0.0
2015-May-18 07:33N 37°56' E 012°20'0 0.0
2015-May-18 06:33N 37°56' E 012°20'5 5.1
2015-May-18 05:33N 37°58' E 012°25'5 5.0
2015-May-18 04:33N 38°01' E 012°31'0 0.0
2015-May-16 11:33N 38°01' E 012°31'7 7.1
2015-May-16 10:33N 37°59' E 012°22'3 3.3
2015-May-16 09:33N 37°56' E 012°20'0 0.0
2015-May-16 08:33N 37°56' E 012°20'0 0.0
2015-May-16 07:33N 37°56' E 012°19'0 0.0
2015-May-16 06:33N 37°56' E 012°20'5 5.3
2015-May-16 05:33N 37°58' E 012°25'5 4.8
2015-May-16 04:33N 38°01' E 012°31'0 0.0
2015-May-15 14:33N 38°01' E 012°31'0 0.0
2015-May-15 13:33N 38°01' E 012°31'0 0.0
2015-May-15 12:33N 38°01' E 012°31'0 0.0
2015-May-15 11:33N 38°01' E 012°31'7 7.2
2015-May-15 10:33N 37°58' E 012°23'3 2.9
2015-May-15 09:33N 37°56' E 012°19'0 0.0
2015-May-15 08:33N 37°56' E 012°20'0 0.0
2015-May-15 07:33N 37°56' E 012°19'0 0.0
2015-May-15 06:33N 37°56' E 012°19'7 6.8
2015-May-15 05:33N 37°59' E 012°27'3 3.1
2015-May-15 04:33N 38°01' E 012°31'0 0.0
2015-May-14 14:34N 38°01' E 012°31'0 0.0
2015-May-14 13:33N 38°01' E 012°31'0 0.0
2015-May-14 12:33N 38°01' E 012°31'0 0.0
2015-May-14 11:34N 38°01' E 012°31'5 4.8
2015-May-14 10:33N 37°58' E 012°25'5 5.2
2015-May-14 09:33N 37°56' E 012°19'0 0.0
2015-May-14 08:33N 37°56' E 012°20'1 0.6
2015-May-14 07:33N 37°57' E 012°19'1 1.0
2015-May-14 06:33N 37°57' E 012°20'4 4.4
2015-May-14 05:33N 37°58' E 012°25'5 4.8
2015-May-14 04:33N 38°01' E 012°31'0 0.0
2015-May-13 14:31N 38°01' E 012°31'0 0.0
2015-May-13 13:33N 38°01' E 012°31'0 0.0
2015-May-13 12:33N 38°01' E 012°31'0 0.0
2015-May-13 11:33N 38°01' E 012°31'5 5.0
2015-May-13 10:33N 37°58' E 012°25'5 5.1
2015-May-13 09:33N 37°56' E 012°19'0 0.0
2015-May-13 08:33N 37°56' E 012°20'0 0.0
2015-May-13 07:33N 37°56' E 012°20'2 2.0
2015-May-13 06:33N 37°58' E 012°20'4 4.1
2015-May-13 05:33N 37°58' E 012°25'5 4.8
2015-May-13 04:33N 38°01' E 012°31'0 0.0
2015-May-12 14:33N 38°01' E 012°31'0 0.0
2015-May-12 13:33N 38°01' E 012°31'0 0.0
2015-May-12 12:33N 38°01' E 012°31'0 0.5
2015-May-12 11:33N 38°01' E 012°30'9 8.8
2015-May-12 10:33N 37°56' E 012°20'3 3.4
2015-May-12 09:33N 37°58' E 012°16'  

Dump ship's entire track history